Time,TemperatureF,DewpointF,PressureIn,WindDirection,WindDirectionDegrees,WindSpeedMPH,WindSpeedGustMPH,Humidity,HourlyPrecipIn,Conditions,Clouds,dailyrainin,SoftwareType,DateUTC
2013-10-28 00:42:00,80.0,70.0,30.04,South,180,14.0,-999.0,72,-99.99,,,-99.99,,2013-10-28 05:42:00,
2013-10-28 00:53:00,80.0,70.0,30.04,South,180,14.0,-999.0,72,-99.99,,,-99.99,,2013-10-28 05:53:00,
2013-10-28 01:42:00,79.0,70.0,30.03,South,170,17.0,-999.0,73,-99.99,,,-99.99,,2013-10-28 06:42:00,
2013-10-28 01:52:00,79.0,70.0,30.03,South,170,17.0,-999.0,73,-99.99,,,-99.99,,2013-10-28 06:52:00,
2013-10-28 02:42:00,79.0,69.0,30.02,SSE,160,15.0,-999.0,71,-99.99,,,-99.99,,2013-10-28 07:42:00,
2013-10-28 02:52:00,79.0,69.0,30.02,SSE,160,15.0,-999.0,71,-99.99,,,-99.99,,2013-10-28 07:52:00,
2013-10-28 03:42:00,79.0,69.0,30.02,South,170,16.0,-999.0,69,-99.99,,,-99.99,,2013-10-28 08:42:00,
2013-10-28 03:51:00,79.0,69.0,30.02,South,170,16.0,-999.0,69,-99.99,,,-99.99,,2013-10-28 08:51:00,
2013-10-28 04:00:00,79.0,68.0,29.98,South,170,15.0,-999.0,69,-99.99,,,-99.99,,2013-10-28 09:00:00,
2013-10-28 04:43:00,79.0,68.0,29.98,South,170,15.0,-999.0,69,-99.99,,,-99.99,,2013-10-28 09:43:00,
2013-10-28 04:53:00,79.0,68.0,29.98,South,170,15.0,-999.0,69,-99.99,,,-99.99,,2013-10-28 09:53:00,
2013-10-28 05:00:00,79.0,69.0,30.03,South,170,16.0,-999.0,70,-99.99,,,-99.99,,2013-10-28 10:00:00,
2013-10-28 05:43:00,79.0,69.0,30.03,South,170,16.0,-999.0,70,-99.99,,,-99.99,,2013-10-28 10:43:00,
2013-10-28 05:53:00,79.0,69.0,30.03,South,170,16.0,-999.0,70,-99.99,,,-99.99,,2013-10-28 10:53:00,
2013-10-28 06:00:00,79.0,68.0,30.04,South,170,15.0,-999.0,68,-99.99,,,-99.99,,2013-10-28 11:00:00,
2013-10-28 06:42:00,79.0,68.0,30.04,South,170,15.0,-999.0,68,-99.99,,,-99.99,,2013-10-28 11:42:00,
2013-10-28 06:52:00,79.0,68.0,30.04,South,170,15.0,-999.0,68,-99.99,,,-99.99,,2013-10-28 11:52:00,
2013-10-28 07:00:00,79.0,69.0,30.00,SSE,160,10.0,-999.0,70,-99.99,,,-99.99,,2013-10-28 12:00:00,
2013-10-28 07:41:00,79.0,69.0,30.00,SSE,160,10.0,-999.0,70,-99.99,,,-99.99,,2013-10-28 12:41:00,
2013-10-28 07:52:00,79.0,69.0,30.00,SSE,160,10.0,-999.0,70,-99.99,,,-99.99,,2013-10-28 12:52:00,
2013-10-28 08:00:00,79.0,67.0,30.03,South,190,14.0,-999.0,67,-99.99,,,-99.99,,2013-10-28 13:00:00,
2013-10-28 08:41:00,79.0,67.0,30.03,South,190,14.0,-999.0,67,-99.99,,,-99.99,,2013-10-28 13:41:00,
2013-10-28 08:52:00,79.0,67.0,30.03,South,190,14.0,-999.0,67,-99.99,,,-99.99,,2013-10-28 13:52:00,
2013-10-28 09:41:00,83.0,68.0,30.06,SSE,150,10.0,-999.0,60,-99.99,,,-99.99,,2013-10-28 14:41:00,
2013-10-28 09:52:00,83.0,68.0,30.06,SSE,150,10.0,-999.0,60,-99.99,,,-99.99,,2013-10-28 14:52:00,
2013-10-28 10:43:00,79.0,68.0,30.09,SSE,160,13.0,-999.0,67,-99.99,,,-99.99,,2013-10-28 15:43:00,
2013-10-28 10:53:00,79.0,68.0,30.09,SSE,160,13.0,-999.0,67,-99.99,,,-99.99,,2013-10-28 15:53:00,
2013-10-28 14:42:00,80.0,68.0,30.09,SE,140,15.0,-999.0,68,-99.99,,,-99.99,,2013-10-28 19:42:00,
2013-10-28 14:52:00,80.0,68.0,30.09,SE,140,15.0,-999.0,68,-99.99,,,-99.99,,2013-10-28 19:52:00,
2013-10-28 15:42:00,82.0,67.0,30.08,ESE,120,14.0,-999.0,59,-99.99,,,-99.99,,2013-10-28 20:42:00,
2013-10-28 15:52:00,82.0,67.0,30.08,ESE,120,14.0,-999.0,59,-99.99,,,-99.99,,2013-10-28 20:52:00,
2013-10-28 16:00:00,80.0,68.0,30.03,SE,130,15.0,-999.0,66,-99.99,,,-99.99,,2013-10-28 21:00:00,
2013-10-28 16:43:00,80.0,68.0,30.03,SE,130,15.0,-999.0,66,-99.99,,,-99.99,,2013-10-28 21:43:00,
2013-10-28 16:53:00,80.0,68.0,30.03,SE,130,15.0,-999.0,66,-99.99,,,-99.99,,2013-10-28 21:53:00,
2013-10-28 17:43:00,79.0,69.0,30.06,East,100,21.0,-999.0,72,-99.99,,,-99.99,,2013-10-28 22:43:00,
2013-10-28 17:53:00,79.0,69.0,30.06,East,100,21.0,-999.0,72,-99.99,,,-99.99,,2013-10-28 22:53:00,
2013-10-28 18:42:00,79.0,69.0,30.07,ESE,120,22.0,-999.0,71,-99.99,,,-99.99,,2013-10-28 23:42:00,
2013-10-28 18:52:00,79.0,69.0,30.07,ESE,120,22.0,-999.0,71,-99.99,,,-99.99,,2013-10-28 23:52:00,
2013-10-28 20:41:00,79.0,68.0,30.09,East,90,22.0,-999.0,69,-99.99,,,-99.99,,2013-10-29 01:41:00,
2013-10-28 20:52:00,79.0,68.0,30.09,East,90,22.0,-999.0,69,-99.99,,,-99.99,,2013-10-29 01:52:00,
2013-10-28 21:44:00,79.0,67.0,30.11,ESE,120,23.0,-999.0,68,-99.99,,,-99.99,,2013-10-29 02:44:00,
2013-10-28 21:53:00,79.0,67.0,30.11,ESE,120,23.0,-999.0,68,-99.99,,,-99.99,,2013-10-29 02:53:00,
2013-10-28 22:40:00,-999.0,-99.9,30.12,SE,130,20.0,-999.0,59,-99.99,,,-99.99,,2013-10-29 03:40:00,
2013-10-28 22:47:00,84.0,69.0,30.12,SE,130,20.0,-999.0,59,-99.99,,,-99.99,,2013-10-29 03:47:00,
2013-10-28 22:55:00,84.0,69.0,30.12,SE,130,20.0,-999.0,59,-99.99,,,-99.99,,2013-10-29 03:55:00,
2013-10-28 23:43:00,79.0,67.0,30.13,ESE,120,25.0,-999.0,66,-99.99,,,-99.99,,2013-10-29 04:43:00,
2013-10-28 23:57:00,79.0,67.0,30.13,ESE,120,25.0,-999.0,66,-99.99,,,-99.99,,2013-10-29 04:57:00,